OEMA/MED METAR and TAF weather

Enter ICAO airport designator
Station Type Date Time Source
OEMA METAR 2020/07/06 20:00 UTC NOAA

OEMA 062000Z 24007KT CAVOK 33/02 Q1007 NOSIG


Station Type Date Time Source
OEMA Decoded METAR 2020/07/06 20:00 UTC NOAA

Madinah, Saudi Arabia (OEMA) 24-33N 039-42E 636M
Jul 06, 2020 - 04:00 PM EDT / 2020.07.06 2000 UTC
Wind: from the WSW (240 degrees) at 8 MPH (7 KT):0
Visibility: greater than 7 mile(s):0
Temperature: 91 F (33 C)
Dew Point: 35 F (2 C)
Relative Humidity: 14%
Pressure (altimeter): 29.74 in. Hg (1007 hPa)
ob: OEMA 062000Z 24007KT CAVOK 33/02 Q1007 NOSIG
cycle: 20

Station Type Date Time Source
OEMA TAF 2020/07/06 18:06 UTC NOAA

TAF OEMA 061700Z 0618/0724 VRB03KT 8000 NSC
BECMG 0706/0708 29010G20KT 6000 NSC

Example: see airport list